createdAt,value
2023-05-03T00:01:44.016Z,76.30
2023-05-03T00:04:15.785Z,76.40
2023-05-03T00:06:44.979Z,76.60
2023-05-03T00:09:14.313Z,76.70
2023-05-03T00:11:42.700Z,76.90
2023-05-03T00:14:12.651Z,77.00
2023-05-03T00:16:41.256Z,76.80
2023-05-03T00:19:17.738Z,77.20
2023-05-03T00:21:52.810Z,77.10
2023-05-03T00:24:20.968Z,77.30
2023-05-03T00:26:49.192Z,77.20
2023-05-03T00:29:23.520Z,77.50
2023-05-03T00:31:55.728Z,77.40
2023-05-03T00:34:24.101Z,77.60
2023-05-03T00:36:52.339Z,77.80
2023-05-03T00:39:20.556Z,78.20
2023-05-03T00:41:48.707Z,77.90
2023-05-03T00:44:18.310Z,77.90
2023-05-03T00:46:46.552Z,77.80
2023-05-03T00:49:14.798Z,77.70
2023-05-03T00:51:44.048Z,77.50
2023-05-03T00:54:12.982Z,77.80
2023-05-03T00:56:51.053Z,78.10
2023-05-03T00:59:22.103Z,78.00
2023-05-03T01:01:51.591Z,78.00
2023-05-03T01:04:20.649Z,78.20
2023-05-03T01:07:00.814Z,78.30
2023-05-03T01:09:37.625Z,78.20
2023-05-03T01:12:24.866Z,78.20
2023-05-03T01:15:08.197Z,78.10
2023-05-03T01:17:42.185Z,78.10
2023-05-03T01:20:15.133Z,78.10
2023-05-03T01:22:49.674Z,77.80
2023-05-03T01:25:19.254Z,77.30
2023-05-03T01:27:47.419Z,78.10
2023-05-03T01:30:16.347Z,78.10
2023-05-03T01:32:56.211Z,78.50
2023-05-03T01:35:31.514Z,78.60
2023-05-03T01:38:00.922Z,78.40
2023-05-03T01:40:33.639Z,78.30
2023-05-03T01:43:03.408Z,78.50
2023-05-03T01:45:31.928Z,78.60
2023-05-03T01:48:00.714Z,78.70
2023-05-03T01:50:29.328Z,78.70
2023-05-03T01:52:57.519Z,78.40
2023-05-03T01:55:27.120Z,78.50
2023-05-03T01:57:56.772Z,78.60
2023-05-03T02:00:25.416Z,78.70
2023-05-03T02:02:53.793Z,78.60
2023-05-03T02:05:22.773Z,78.80
2023-05-03T02:07:51.238Z,78.70
2023-05-03T02:10:19.637Z,78.90
2023-05-03T02:12:48.053Z,78.80
2023-05-03T02:15:20.124Z,78.60
2023-05-03T02:17:50.916Z,78.50
2023-05-03T02:20:20.987Z,78.80
2023-05-03T02:22:49.240Z,78.90
2023-05-03T02:25:17.473Z,79.10
2023-05-03T02:27:45.666Z,79.00
2023-05-03T02:30:14.564Z,78.90
2023-05-03T02:32:45.072Z,79.00
2023-05-03T02:35:13.533Z,79.10
2023-05-03T02:37:41.782Z,79.00
2023-05-03T02:40:11.014Z,79.10
2023-05-03T02:42:39.380Z,79.10
2023-05-03T02:45:08.840Z,79.10
2023-05-03T02:47:37.090Z,79.20
2023-05-03T02:50:07.846Z,79.00
2023-05-03T02:52:38.612Z,79.10
2023-05-03T02:55:07.970Z,79.10
2023-05-03T02:57:36.206Z,79.10
2023-05-03T03:00:06.562Z,79.20
2023-05-03T03:02:35.629Z,79.20
2023-05-03T03:05:04.545Z,79.20
2023-05-03T03:07:34.557Z,79.30
2023-05-03T03:10:03.286Z,79.30
2023-05-03T03:12:31.981Z,79.40
2023-05-03T03:15:00.205Z,79.60
2023-05-03T03:17:28.508Z,79.30
2023-05-03T03:19:58.252Z,79.40
2023-05-03T03:22:26.701Z,79.40
2023-05-03T03:24:56.346Z,79.40
2023-05-03T03:27:24.666Z,79.60
2023-05-03T03:29:52.870Z,79.30
2023-05-03T03:32:21.734Z,79.40
2023-05-03T03:34:50.018Z,79.30
2023-05-03T03:37:18.233Z,79.20
2023-05-03T03:39:46.459Z,79.30
2023-05-03T03:42:18.467Z,79.20
2023-05-03T03:44:47.476Z,78.80
2023-05-03T03:47:15.865Z,78.90
2023-05-03T03:49:44.286Z,79.10
2023-05-03T03:52:12.528Z,79.10
2023-05-03T03:54:40.751Z,79.30
2023-05-03T03:57:09.278Z,79.00
2023-05-03T03:59:38.915Z,78.90
2023-05-03T04:02:07.377Z,79.20
2023-05-03T04:04:36.322Z,79.30
2023-05-03T04:07:05.513Z,79.20
2023-05-03T04:09:33.705Z,79.10
2023-05-03T04:12:03.362Z,79.10
2023-05-03T04:14:31.574Z,79.10
2023-05-03T04:17:01.657Z,79.00
2023-05-03T04:19:29.905Z,79.20
2023-05-03T04:21:58.267Z,79.40
2023-05-03T04:24:27.822Z,79.10
2023-05-03T04:26:56.121Z,79.30
2023-05-03T04:29:24.342Z,79.50
2023-05-03T04:31:52.590Z,79.50
2023-05-03T04:34:22.272Z,79.40
2023-05-03T04:36:50.476Z,79.30
2023-05-03T04:39:18.648Z,79.10
2023-05-03T04:41:46.912Z,79.60
2023-05-03T04:44:15.398Z,79.50
2023-05-03T04:46:43.636Z,79.40
2023-05-03T04:49:12.053Z,79.60
2023-05-03T04:51:41.636Z,79.30
2023-05-03T04:54:09.812Z,79.50
2023-05-03T04:56:37.950Z,79.60
2023-05-03T04:59:06.174Z,79.70
2023-05-03T05:01:34.427Z,79.90
2023-05-03T05:04:02.757Z,79.70
2023-05-03T05:06:31.430Z,79.40
2023-05-03T05:09:01.032Z,79.20
2023-05-03T05:11:29.267Z,79.50
2023-05-03T05:13:57.445Z,79.50
2023-05-03T05:16:25.585Z,79.20
2023-05-03T05:18:53.829Z,79.00
2023-05-03T05:21:21.994Z,78.90
2023-05-03T05:23:50.218Z,78.80
2023-05-03T05:26:19.814Z,78.70
2023-05-03T05:28:48.039Z,78.60
2023-05-03T05:31:16.686Z,78.80
2023-05-03T05:33:44.963Z,78.90
2023-05-03T05:36:13.266Z,77.90
2023-05-03T05:38:41.906Z,78.50
2023-05-03T05:41:10.188Z,78.40
2023-05-03T05:43:39.832Z,78.20
2023-05-03T05:46:08.452Z,78.40
2023-05-03T05:48:36.610Z,77.90
2023-05-03T05:51:06.109Z,78.40
2023-05-03T05:53:34.497Z,77.60
2023-05-03T05:56:02.877Z,77.90
2023-05-03T05:58:31.359Z,78.20
2023-05-03T06:01:04.965Z,77.90
2023-05-03T06:03:34.389Z,77.90
2023-05-03T06:06:02.680Z,77.70
2023-05-03T06:08:31.038Z,77.50
2023-05-03T06:10:59.253Z,77.20
2023-05-03T06:13:28.116Z,77.30
2023-05-03T06:15:56.305Z,77.10
2023-05-03T06:18:28.315Z,77.00
2023-05-03T06:20:56.576Z,77.20
2023-05-03T06:23:24.824Z,76.90
2023-05-03T06:25:53.042Z,77.20
2023-05-03T06:28:21.436Z,76.50
2023-05-03T06:30:53.113Z,76.90
2023-05-03T06:33:21.366Z,76.20
2023-05-03T06:35:51.021Z,76.40
2023-05-03T06:38:19.523Z,76.70
2023-05-03T06:40:47.791Z,76.00
2023-05-03T06:43:16.151Z,76.10
2023-05-03T06:45:45.363Z,75.80
2023-05-03T06:48:13.777Z,75.60
2023-05-03T06:50:42.167Z,75.50
2023-05-03T06:53:11.734Z,75.50
2023-05-03T06:55:40.094Z,74.30
2023-05-03T06:58:10.095Z,74.90
2023-05-03T07:00:39.209Z,74.20
2023-05-03T07:03:07.908Z,74.40
2023-05-03T07:05:36.363Z,73.60
2023-05-03T07:08:04.981Z,74.10
2023-05-03T07:10:34.636Z,74.20
2023-05-03T07:13:02.817Z,73.20
2023-05-03T07:15:31.452Z,72.80
2023-05-03T07:17:59.888Z,73.40
2023-05-03T07:20:28.410Z,73.20
2023-05-03T07:22:57.504Z,73.30
2023-05-03T07:25:25.891Z,72.70
2023-05-03T07:27:55.530Z,71.70
2023-05-03T07:30:24.618Z,71.20
2023-05-03T07:32:53.036Z,70.80
2023-05-03T07:35:23.147Z,71.00
2023-05-03T07:37:52.188Z,70.00
2023-05-03T07:40:21.090Z,70.60
2023-05-03T07:42:49.516Z,70.60
2023-05-03T07:45:20.928Z,69.70
2023-05-03T07:47:49.160Z,66.10
2023-05-03T07:50:17.610Z,64.90
2023-05-03T07:52:45.839Z,66.10
2023-05-03T07:55:14.121Z,65.70
2023-05-03T07:57:42.577Z,65.90
2023-05-03T08:00:12.573Z,64.30
2023-05-03T08:02:42.897Z,63.80
2023-05-03T08:05:15.187Z,64.20
2023-05-03T08:07:44.420Z,64.70
2023-05-03T08:10:13.481Z,63.20
2023-05-03T08:12:41.885Z,64.70
2023-05-03T08:15:11.452Z,64.60
2023-05-03T08:17:46.073Z,63.70
2023-05-03T08:20:16.806Z,63.40
2023-05-03T08:22:46.465Z,63.60
2023-05-03T08:25:17.022Z,62.90
2023-05-03T08:27:45.272Z,60.60
2023-05-03T08:30:17.727Z,60.00
2023-05-03T08:32:47.649Z,61.60
2023-05-03T08:35:16.734Z,59.50
2023-05-03T08:37:46.042Z,59.40
2023-05-03T08:40:16.699Z,58.40
2023-05-03T08:42:46.172Z,58.90
2023-05-03T08:45:16.407Z,58.70
2023-05-03T08:47:46.612Z,56.30
2023-05-03T08:50:16.619Z,58.10
2023-05-03T08:52:45.665Z,58.80
2023-05-03T08:55:14.227Z,56.80
2023-05-03T08:57:42.493Z,54.80
2023-05-03T09:00:12.951Z,56.60
2023-05-03T09:02:42.056Z,58.00
2023-05-03T09:05:34.761Z,58.00
2023-05-03T09:08:04.977Z,55.70
2023-05-03T09:10:34.100Z,56.00
2023-05-03T09:13:03.834Z,56.80
2023-05-03T09:15:32.670Z,58.20
2023-05-03T09:18:13.878Z,55.10
2023-05-03T09:20:51.265Z,55.00
2023-05-03T09:23:21.158Z,57.90
2023-05-03T09:25:51.729Z,56.10
2023-05-03T09:28:21.543Z,55.90
2023-05-03T09:30:51.007Z,54.60
2023-05-03T09:33:30.595Z,55.80
2023-05-03T09:36:02.083Z,55.00
2023-05-03T09:38:31.942Z,55.50
2023-05-03T09:41:01.385Z,53.30
2023-05-03T09:43:29.681Z,53.30
2023-05-03T09:46:10.744Z,54.80
2023-05-03T09:48:39.268Z,53.20
2023-05-03T09:51:09.866Z,54.80
2023-05-03T09:53:39.732Z,52.80
2023-05-03T09:56:12.820Z,52.50
2023-05-03T09:58:42.130Z,50.30
2023-05-03T10:01:11.169Z,51.80
2023-05-03T10:03:44.177Z,52.80
2023-05-03T10:06:32.226Z,51.80
2023-05-03T10:09:08.583Z,52.80
2023-05-03T10:11:37.554Z,52.30
2023-05-03T10:14:07.799Z,51.90
2023-05-03T10:16:40.429Z,52.40
2023-05-03T10:19:14.888Z,52.10
2023-05-03T10:22:05.310Z,51.90
2023-05-03T10:24:34.461Z,50.40
2023-05-03T10:27:03.046Z,51.50
2023-05-03T10:29:52.390Z,48.50
2023-05-03T10:32:36.535Z,50.10
2023-05-03T10:35:10.432Z,51.20
2023-05-03T10:37:42.656Z,50.70
2023-05-03T10:40:15.115Z,52.40
2023-05-03T10:42:46.775Z,51.30
2023-05-03T10:45:28.214Z,51.00
2023-05-03T10:48:22.922Z,51.90
2023-05-03T10:50:51.790Z,51.30
2023-05-03T10:53:42.695Z,50.80
2023-05-03T10:56:13.459Z,49.40
2023-05-03T10:58:47.424Z,50.20
2023-05-03T11:01:19.354Z,49.90
2023-05-03T11:03:53.481Z,48.80
2023-05-03T11:06:34.280Z,47.30
2023-05-03T11:09:07.121Z,48.00
2023-05-03T11:11:39.348Z,49.50
2023-05-03T11:14:08.675Z,47.30
2023-05-03T11:16:40.626Z,47.90
2023-05-03T11:19:09.225Z,47.90
2023-05-03T11:21:37.666Z,48.60
2023-05-03T11:24:08.210Z,47.50
2023-05-03T11:26:40.216Z,48.30
2023-05-03T11:29:13.098Z,46.50
2023-05-03T11:31:43.732Z,47.30
2023-05-03T11:34:12.677Z,48.30
2023-05-03T11:36:42.756Z,49.10
2023-05-03T11:39:13.949Z,48.90
2023-05-03T11:41:43.042Z,47.20
2023-05-03T11:44:17.249Z,48.30
2023-05-03T11:46:48.200Z,47.40
2023-05-03T11:49:20.018Z,47.80
2023-05-03T11:51:52.548Z,47.70
2023-05-03T11:54:27.404Z,46.30
2023-05-03T11:56:59.039Z,46.80
2023-05-03T11:59:39.280Z,49.20
2023-05-03T12:02:09.408Z,48.60
2023-05-03T12:04:41.701Z,50.50
2023-05-03T12:07:12.042Z,49.80
2023-05-03T12:09:45.472Z,50.20
2023-05-03T12:12:25.103Z,49.30
2023-05-03T12:15:00.081Z,49.70
2023-05-03T12:17:37.604Z,49.00
2023-05-03T12:22:52.356Z,49.30
2023-05-03T12:25:26.079Z,49.80
2023-05-03T12:28:15.596Z,48.70
2023-05-03T12:30:45.894Z,48.80
2023-05-03T12:33:16.079Z,49.90
2023-05-03T12:35:47.797Z,48.30
2023-05-03T12:38:18.390Z,49.30
2023-05-03T12:40:48.264Z,50.30
2023-05-03T12:43:16.688Z,47.30
2023-05-03T12:45:50.047Z,48.80
2023-05-03T12:48:27.136Z,49.30
2023-05-03T12:51:07.319Z,50.20
2023-05-03T12:53:47.074Z,47.90
2023-05-03T12:56:17.476Z,49.80
2023-05-03T13:02:05.993Z,49.80
2023-05-03T13:04:41.328Z,49.90
2023-05-03T13:07:00.492Z,50.30
2023-05-03T13:09:38.600Z,50.80
2023-05-03T13:12:20.399Z,50.00
2023-05-03T13:14:49.651Z,48.60
2023-05-03T13:17:18.482Z,48.80
2023-05-03T13:19:47.248Z,50.20
2023-05-03T13:22:16.525Z,48.40
2023-05-03T13:24:47.180Z,50.00
2023-05-03T13:27:15.812Z,50.00
2023-05-03T13:29:48.324Z,48.50
2023-05-03T13:32:17.620Z,48.80
2023-05-03T13:34:45.890Z,48.50
2023-05-03T13:37:18.433Z,49.10
2023-05-03T13:39:46.951Z,47.70
2023-05-03T13:42:15.225Z,47.30
2023-05-03T13:44:47.608Z,48.00
2023-05-03T13:47:16.398Z,49.00
2023-05-03T13:49:44.624Z,47.80
2023-05-03T13:52:12.941Z,47.00
2023-05-03T13:54:42.435Z,48.00
2023-05-03T13:57:10.716Z,47.10
2023-05-03T13:59:38.909Z,47.60
2023-05-03T14:02:08.643Z,48.20
2023-05-03T14:04:36.927Z,48.40
2023-05-03T14:07:05.251Z,47.40
2023-05-03T14:09:38.806Z,47.80
2023-05-03T14:12:08.129Z,47.80
2023-05-03T14:14:36.911Z,47.30
2023-05-03T14:17:06.506Z,47.30
2023-05-03T14:19:37.910Z,48.30
2023-05-03T14:22:06.364Z,48.10
2023-05-03T14:24:34.655Z,48.50
2023-05-03T14:27:03.133Z,48.20
2023-05-03T14:29:31.435Z,47.10
2023-05-03T14:31:59.595Z,46.60
2023-05-03T14:34:29.140Z,47.10
2023-05-03T14:36:58.735Z,47.70
2023-05-03T14:39:27.294Z,47.60
2023-05-03T14:41:56.516Z,45.80
2023-05-03T14:44:25.131Z,48.00
2023-05-03T14:46:53.953Z,46.30
2023-05-03T14:49:22.314Z,47.00
2023-05-03T14:51:50.577Z,47.20
2023-05-03T14:54:22.958Z,47.60
2023-05-03T14:56:51.398Z,47.90
2023-05-03T14:59:19.588Z,46.50
2023-05-03T15:01:47.899Z,47.00
2023-05-03T15:04:16.209Z,47.90
2023-05-03T15:06:44.437Z,47.90
2023-05-03T15:09:13.214Z,47.20
2023-05-03T15:11:42.898Z,46.90
2023-05-03T15:14:11.515Z,48.00
2023-05-03T15:16:40.437Z,47.20
2023-05-03T15:19:08.765Z,46.30
2023-05-03T15:21:47.435Z,46.90
2023-05-03T15:24:16.266Z,46.70
2023-05-03T15:26:46.824Z,47.90
2023-05-03T15:29:16.295Z,47.40
2023-05-03T15:31:44.829Z,47.50
2023-05-03T15:34:13.138Z,47.30
2023-05-03T15:36:41.566Z,46.40
2023-05-03T15:39:10.011Z,47.40
2023-05-03T15:41:38.505Z,47.00
2023-05-03T15:44:09.765Z,47.70
2023-05-03T15:46:39.637Z,47.20
2023-05-03T15:49:09.693Z,48.20
2023-05-03T15:51:37.968Z,47.70
2023-05-03T15:54:06.445Z,47.40
2023-05-03T15:56:34.751Z,45.80
2023-05-03T15:59:02.967Z,46.40
2023-05-03T16:01:32.596Z,47.20
2023-05-03T16:04:00.840Z,47.60
2023-05-03T16:06:29.697Z,48.10
2023-05-03T16:08:57.918Z,48.00
2023-05-03T16:11:26.176Z,48.70
2023-05-03T16:13:54.658Z,48.10
2023-05-03T16:16:22.972Z,47.70
2023-05-03T16:18:52.635Z,48.20
2023-05-03T16:21:20.860Z,48.90
2023-05-03T16:23:49.084Z,47.80
2023-05-03T16:26:19.337Z,48.30
2023-05-03T16:28:49.529Z,49.10
2023-05-03T16:31:18.379Z,48.50
2023-05-03T16:33:46.602Z,46.10
2023-05-03T16:36:16.347Z,46.10
2023-05-03T16:38:44.580Z,46.30
2023-05-03T16:41:12.774Z,46.10
2023-05-03T16:43:41.340Z,45.90
2023-05-03T16:46:09.642Z,46.60
2023-05-03T16:48:37.946Z,46.20
2023-05-03T16:51:06.665Z,46.50
2023-05-03T16:53:36.703Z,46.80
2023-05-03T16:56:05.386Z,47.30
2023-05-03T16:58:33.742Z,48.70
2023-05-03T17:01:02.278Z,48.20
2023-05-03T17:03:30.860Z,48.40
2023-05-03T17:06:00.685Z,48.20
2023-05-03T17:08:29.799Z,48.20
2023-05-03T17:11:01.490Z,48.20
2023-05-03T17:13:29.767Z,46.80
2023-05-03T17:15:58.011Z,48.80
2023-05-03T17:18:26.382Z,48.30
2023-05-03T17:21:01.085Z,48.70
2023-05-03T17:23:29.482Z,48.70
2023-05-03T17:26:02.990Z,48.60
2023-05-03T17:28:31.753Z,48.30
2023-05-03T17:31:01.079Z,47.50
2023-05-03T17:33:29.532Z,49.90
2023-05-03T17:36:00.580Z,49.60
2023-05-03T17:38:28.633Z,49.60
2023-05-03T17:40:56.893Z,49.20
2023-05-03T17:43:26.596Z,47.60
2023-05-03T17:45:54.928Z,48.20
2023-05-03T17:48:23.216Z,48.20
2023-05-03T17:50:59.759Z,48.90
2023-05-03T17:53:28.078Z,48.70
2023-05-03T17:55:56.365Z,49.10
2023-05-03T17:58:26.239Z,49.40
2023-05-03T18:00:55.111Z,48.50
2023-05-03T18:03:25.824Z,49.10
2023-05-03T18:05:54.260Z,49.60
2023-05-03T18:08:22.561Z,50.60
2023-05-03T18:10:51.729Z,49.40
2023-05-03T18:13:20.217Z,49.60
2023-05-03T18:15:50.090Z,49.30
2023-05-03T18:18:18.575Z,48.50
2023-05-03T18:20:46.870Z,49.20
2023-05-03T18:23:15.567Z,49.70
2023-05-03T18:25:46.094Z,50.30
2023-05-03T18:28:14.357Z,52.30
2023-05-03T18:30:42.709Z,52.60
2023-05-03T18:33:12.957Z,52.10
2023-05-03T18:35:41.542Z,52.20
2023-05-03T18:38:10.143Z,52.60
2023-05-03T18:40:38.432Z,52.60
2023-05-03T18:43:06.626Z,53.00
2023-05-03T18:45:38.312Z,52.70
2023-05-03T18:48:06.945Z,52.80
2023-05-03T18:50:38.303Z,52.70
2023-05-03T18:53:07.271Z,54.30
2023-05-03T18:55:35.465Z,54.10
2023-05-03T18:58:04.165Z,54.40
2023-05-03T19:00:32.920Z,54.70
2023-05-03T19:03:01.515Z,54.80
2023-05-03T19:05:29.954Z,55.30
2023-05-03T19:07:59.825Z,56.60
2023-05-03T19:10:28.137Z,57.20
2023-05-03T19:12:57.376Z,57.00
2023-05-03T19:15:25.892Z,57.50
2023-05-03T19:17:54.137Z,58.20
2023-05-03T19:20:22.386Z,57.50
2023-05-03T19:22:50.738Z,57.40
2023-05-03T19:25:20.776Z,57.20
2023-05-03T19:27:48.996Z,57.60
2023-05-03T19:30:17.648Z,57.50
2023-05-03T19:32:46.070Z,57.70
2023-05-03T19:35:14.818Z,57.70
2023-05-03T19:37:44.544Z,57.40
2023-05-03T19:40:14.922Z,57.60
2023-05-03T19:42:44.626Z,57.30
2023-05-03T19:45:13.689Z,56.80
2023-05-03T19:47:42.170Z,58.10
2023-05-03T19:50:11.195Z,58.00
2023-05-03T19:52:39.459Z,58.80
2023-05-03T19:55:08.433Z,58.60
2023-05-03T19:57:37.215Z,59.00
2023-05-03T20:00:09.732Z,59.90
2023-05-03T20:02:38.242Z,59.10
2023-05-03T20:05:08.094Z,59.70
2023-05-03T20:07:37.310Z,58.70
2023-05-03T20:10:06.692Z,58.90
2023-05-03T20:12:35.155Z,59.40
2023-05-03T20:15:03.506Z,59.00
2023-05-03T20:17:33.238Z,59.50
2023-05-03T20:20:08.459Z,60.40
2023-05-03T20:22:36.887Z,60.30
2023-05-03T20:25:06.331Z,60.40
2023-05-03T20:27:34.595Z,60.00
2023-05-03T20:30:05.640Z,60.80
2023-05-03T20:32:36.465Z,60.50
2023-05-03T20:35:05.301Z,61.00
2023-05-03T20:37:34.344Z,61.10
2023-05-03T20:40:03.851Z,60.60
2023-05-03T20:42:32.574Z,61.10
2023-05-03T20:45:00.881Z,61.40
2023-05-03T20:47:29.168Z,62.10
2023-05-03T20:49:58.781Z,62.30
2023-05-03T20:52:27.203Z,62.50
2023-05-03T20:54:55.452Z,62.20
2023-05-03T20:57:23.667Z,62.30
2023-05-03T20:59:52.494Z,61.90
2023-05-03T21:02:20.921Z,61.90
2023-05-03T21:04:49.235Z,61.90
2023-05-03T21:07:18.984Z,62.00
2023-05-03T21:09:47.238Z,62.10
2023-05-03T21:12:15.500Z,62.10
2023-05-03T21:14:43.905Z,61.00
2023-05-03T21:17:12.335Z,62.70
2023-05-03T21:19:40.703Z,61.40
2023-05-03T21:22:09.138Z,60.30
2023-05-03T21:24:38.874Z,61.90
2023-05-03T21:27:07.165Z,61.70
2023-05-03T21:29:35.479Z,61.20
2023-05-03T21:32:04.282Z,61.30
2023-05-03T21:34:32.683Z,60.90
2023-05-03T21:37:01.124Z,61.60
2023-05-03T21:39:29.671Z,62.30
2023-05-03T21:41:59.283Z,61.50
2023-05-03T21:44:27.657Z,63.10
2023-05-03T21:46:56.589Z,62.90
2023-05-03T21:49:24.948Z,61.30
2023-05-03T21:51:53.735Z,62.50
2023-05-03T21:54:21.934Z,61.40
2023-05-03T21:56:50.271Z,61.60
2023-05-03T21:59:19.870Z,61.60
2023-05-03T22:01:48.857Z,62.10
2023-05-03T22:04:17.418Z,61.70
2023-05-03T22:06:47.035Z,61.30
2023-05-03T22:09:15.268Z,62.30
2023-05-03T22:11:43.456Z,61.30
2023-05-03T22:14:12.123Z,61.50
2023-05-03T22:16:42.776Z,62.40
2023-05-03T22:19:11.967Z,63.30
2023-05-03T22:21:40.291Z,62.80
2023-05-03T22:24:09.683Z,61.90
2023-05-03T22:26:38.242Z,62.50
2023-05-03T22:29:07.980Z,61.60
2023-05-03T22:31:36.274Z,62.90
2023-05-03T22:34:06.115Z,62.20
2023-05-03T22:36:34.386Z,62.30
2023-05-03T22:39:05.406Z,62.10
2023-05-03T22:41:34.028Z,62.70
2023-05-03T22:44:02.252Z,63.30
2023-05-03T22:46:30.544Z,63.40
2023-05-03T22:48:58.904Z,63.50
2023-05-03T22:51:28.781Z,62.90
2023-05-03T22:53:57.082Z,62.80
2023-05-03T22:56:25.424Z,64.30
2023-05-03T22:58:53.716Z,63.50
2023-05-03T23:01:21.951Z,63.30
2023-05-03T23:03:50.363Z,63.20
2023-05-03T23:06:18.664Z,64.40
2023-05-03T23:08:48.239Z,63.20
2023-05-03T23:11:16.529Z,65.10
2023-05-03T23:13:44.948Z,63.70
2023-05-03T23:16:13.499Z,63.60
2023-05-03T23:18:41.780Z,63.50
2023-05-03T23:21:10.187Z,65.20
2023-05-03T23:23:53.224Z,65.40
2023-05-03T23:26:21.490Z,64.10
2023-05-03T23:28:53.841Z,64.80
2023-05-03T23:31:22.781Z,63.90
2023-05-03T23:39:20.593Z,65.90
2023-05-03T23:41:50.427Z,66.20
2023-05-03T23:44:18.764Z,66.50
2023-05-03T23:46:46.927Z,67.00
2023-05-03T23:49:15.084Z,65.50
2023-05-03T23:51:43.397Z,66.30
2023-05-03T23:54:11.604Z,65.60
2023-05-03T23:56:39.885Z,66.80
2023-05-03T23:59:09.748Z,67.30
